createdAt,value
2023-05-13T00:01:08.182Z,7.85
2023-05-13T00:03:37.125Z,7.79
2023-05-13T00:06:04.692Z,7.69
2023-05-13T00:08:32.267Z,7.72
2023-05-13T00:10:59.713Z,7.70
2023-05-13T00:13:27.672Z,7.64
2023-05-13T00:15:55.158Z,7.69
2023-05-13T00:18:22.660Z,7.79
2023-05-13T00:20:51.635Z,7.73
2023-05-13T00:23:19.047Z,7.74
2023-05-13T00:25:46.493Z,7.61
2023-05-13T00:28:15.107Z,7.64
2023-05-13T00:30:43.698Z,7.71
2023-05-13T00:33:13.566Z,7.57
2023-05-13T00:35:41.050Z,7.39
2023-05-13T00:38:09.927Z,7.36
2023-05-13T00:40:40.821Z,7.35
2023-05-13T00:43:08.232Z,7.42
2023-05-13T00:45:37.766Z,7.48
2023-05-13T00:48:06.992Z,7.48
2023-05-13T00:50:34.853Z,7.40
2023-05-13T00:53:04.352Z,7.31
2023-05-13T00:55:33.150Z,7.27
2023-05-13T00:58:00.896Z,7.45
2023-05-13T01:00:29.678Z,7.47
2023-05-13T01:03:03.980Z,7.47
2023-05-13T01:05:39.313Z,7.41
2023-05-13T01:08:17.519Z,7.38
2023-05-13T01:10:51.190Z,7.25
2023-05-13T01:13:23.858Z,7.37
2023-05-13T01:15:58.804Z,7.42
2023-05-13T01:18:36.960Z,7.50
2023-05-13T01:21:06.192Z,7.46
2023-05-13T01:23:34.970Z,7.47
2023-05-13T01:26:02.394Z,7.47
2023-05-13T01:28:30.211Z,7.48
2023-05-13T01:30:58.731Z,7.48
2023-05-13T01:33:27.272Z,7.44
2023-05-13T01:35:57.441Z,7.53
2023-05-13T01:38:27.479Z,7.55
2023-05-13T01:40:57.594Z,7.54
2023-05-13T01:43:25.037Z,7.55
2023-05-13T01:45:52.598Z,7.52
2023-05-13T01:48:20.090Z,7.49
2023-05-13T01:50:47.545Z,7.48
2023-05-13T01:53:15.192Z,7.38
2023-05-13T01:55:42.631Z,7.35
2023-05-13T01:58:13.596Z,7.08
2023-05-13T02:00:41.101Z,7.02
2023-05-13T02:03:08.579Z,7.12
2023-05-13T02:05:36.166Z,7.10
2023-05-13T02:08:03.624Z,7.27
2023-05-13T02:10:31.131Z,7.17
2023-05-13T02:12:58.561Z,7.16
2023-05-13T02:15:27.381Z,7.14
2023-05-13T02:17:54.821Z,7.17
2023-05-13T02:20:22.905Z,7.11
2023-05-13T02:22:50.553Z,6.98
2023-05-13T02:25:18.205Z,6.87
2023-05-13T02:27:45.940Z,6.70
2023-05-13T02:30:13.798Z,6.62
2023-05-13T02:32:43.951Z,6.62
2023-05-13T02:35:11.549Z,6.61
2023-05-13T02:37:38.987Z,6.63
2023-05-13T02:40:07.665Z,6.71
2023-05-13T02:42:35.113Z,6.70
2023-05-13T02:45:02.721Z,6.60
2023-05-13T02:47:30.176Z,6.58
2023-05-13T02:49:58.981Z,6.37
2023-05-13T02:52:26.538Z,6.38
2023-05-13T02:54:54.014Z,6.38
2023-05-13T02:57:21.449Z,6.27
2023-05-13T02:59:48.867Z,6.16
2023-05-13T03:02:16.322Z,6.25
2023-05-13T03:04:43.846Z,6.27
2023-05-13T03:07:12.745Z,6.16
2023-05-13T03:09:42.122Z,6.22
2023-05-13T03:12:09.946Z,6.08
2023-05-13T03:14:37.408Z,5.99
2023-05-13T03:17:05.383Z,5.87
2023-05-13T03:19:32.852Z,5.81
2023-05-13T03:22:00.518Z,5.84
2023-05-13T03:24:29.342Z,5.78
2023-05-13T03:26:56.982Z,5.81
2023-05-13T03:29:24.675Z,5.83
2023-05-13T03:31:53.365Z,5.98
2023-05-13T03:34:20.896Z,5.93
2023-05-13T03:36:48.406Z,5.89
2023-05-13T03:39:16.266Z,5.79
2023-05-13T03:41:45.715Z,5.73
2023-05-13T03:44:13.147Z,5.55
2023-05-13T03:46:40.602Z,5.52
2023-05-13T03:49:08.082Z,5.51
2023-05-13T03:51:35.674Z,5.44
2023-05-13T03:54:03.144Z,5.30
2023-05-13T03:56:30.738Z,5.29
2023-05-13T03:58:59.478Z,5.32
2023-05-13T04:01:27.023Z,5.41
2023-05-13T04:03:54.426Z,5.47
2023-05-13T04:06:21.874Z,5.46
2023-05-13T04:08:49.870Z,5.57
2023-05-13T04:11:17.281Z,5.65
2023-05-13T04:13:45.783Z,5.51
2023-05-13T04:16:14.646Z,5.33
2023-05-13T04:18:42.313Z,5.47
2023-05-13T04:21:11.285Z,5.65
2023-05-13T04:23:38.730Z,5.85
2023-05-13T04:26:06.276Z,5.80
2023-05-13T04:28:34.554Z,5.75
2023-05-13T04:31:02.759Z,5.63
2023-05-13T04:33:31.573Z,5.62
2023-05-13T04:35:58.973Z,5.61
2023-05-13T04:38:26.395Z,5.75
2023-05-13T04:40:53.804Z,5.94
2023-05-13T04:43:22.429Z,6.15
2023-05-13T04:45:49.963Z,6.11
2023-05-13T04:48:17.472Z,6.19
2023-05-13T04:50:49.361Z,6.41
2023-05-13T04:53:17.150Z,6.52
2023-05-13T04:55:44.601Z,6.76
2023-05-13T04:58:11.992Z,6.90
2023-05-13T05:00:39.406Z,6.93
2023-05-13T05:03:06.834Z,7.04
2023-05-13T05:05:34.326Z,7.29
2023-05-13T05:08:03.255Z,7.53
2023-05-13T05:10:30.772Z,7.71
2023-05-13T05:12:58.186Z,7.85
2023-05-13T05:15:25.627Z,7.98
2023-05-13T05:17:53.310Z,8.35
2023-05-13T05:20:21.046Z,8.57
2023-05-13T05:22:50.133Z,8.86
2023-05-13T05:25:19.013Z,8.98
2023-05-13T05:27:46.644Z,8.77
2023-05-13T05:30:15.256Z,8.93
2023-05-13T05:32:42.917Z,9.06
2023-05-13T05:35:10.723Z,9.28
2023-05-13T05:37:38.168Z,9.46
2023-05-13T05:40:07.095Z,9.66
2023-05-13T05:42:35.974Z,9.82
2023-05-13T05:45:03.425Z,10.02
2023-05-13T05:47:30.936Z,10.34
2023-05-13T05:50:04.840Z,10.64
2023-05-13T05:52:32.622Z,10.96
2023-05-13T05:55:00.133Z,11.13
2023-05-13T05:57:27.662Z,11.39
2023-05-13T05:59:56.445Z,11.55
2023-05-13T06:02:23.988Z,11.81
2023-05-13T06:04:51.870Z,11.80
2023-05-13T06:07:19.610Z,11.72
2023-05-13T06:09:47.080Z,11.67
2023-05-13T06:12:14.609Z,12.13
2023-05-13T06:14:42.045Z,12.18
2023-05-13T06:17:10.848Z,12.04
2023-05-13T06:19:38.361Z,12.39
2023-05-13T06:22:05.883Z,12.45
2023-05-13T06:24:33.288Z,12.46
2023-05-13T06:27:01.529Z,12.64
2023-05-13T06:29:29.186Z,12.48
2023-05-13T06:31:56.651Z,12.69
2023-05-13T06:34:25.444Z,12.40
2023-05-13T06:36:52.894Z,12.17
2023-05-13T06:39:20.608Z,12.66
2023-05-13T06:41:48.105Z,12.20
2023-05-13T06:44:15.668Z,12.36
2023-05-13T06:46:43.106Z,12.73
2023-05-13T06:49:10.604Z,13.01
2023-05-13T06:51:39.396Z,13.42
2023-05-13T06:54:06.913Z,13.50
2023-05-13T06:56:35.411Z,13.70
2023-05-13T06:59:03.093Z,13.90
2023-05-13T07:01:30.830Z,14.03
2023-05-13T07:03:58.489Z,13.83
2023-05-13T07:06:25.987Z,13.66
2023-05-13T07:08:54.901Z,13.62
2023-05-13T07:11:22.390Z,13.69
2023-05-13T07:13:49.895Z,14.28
2023-05-13T07:16:18.238Z,14.32
2023-05-13T07:18:45.780Z,14.52
2023-05-13T07:21:14.230Z,14.68
2023-05-13T07:23:43.674Z,14.34
2023-05-13T07:26:13.350Z,14.59
2023-05-13T07:28:40.796Z,14.38
2023-05-13T07:31:08.525Z,14.41
2023-05-13T07:33:37.021Z,14.58
2023-05-13T07:36:05.684Z,14.36
2023-05-13T07:38:33.314Z,14.21
2023-05-13T07:41:00.800Z,14.10
2023-05-13T07:43:29.562Z,14.43
2023-05-13T07:45:59.088Z,14.31
2023-05-13T07:48:28.085Z,14.30
2023-05-13T07:50:55.577Z,14.18
2023-05-13T07:53:23.240Z,14.42
2023-05-13T07:55:50.753Z,14.51
2023-05-13T07:58:18.578Z,14.40
2023-05-13T08:00:49.369Z,14.29
2023-05-13T08:03:17.144Z,14.28
2023-05-13T08:05:44.722Z,14.72
2023-05-13T08:08:12.401Z,14.57
2023-05-13T08:10:39.845Z,14.63
2023-05-13T08:13:07.292Z,14.74
2023-05-13T08:15:37.000Z,14.73
2023-05-13T08:18:06.071Z,15.06
2023-05-13T08:20:33.644Z,15.50
2023-05-13T08:23:01.912Z,14.91
2023-05-13T08:25:29.348Z,15.20
2023-05-13T08:27:56.798Z,15.23
2023-05-13T08:30:24.243Z,15.50
2023-05-13T08:32:51.741Z,15.52
2023-05-13T08:35:21.587Z,15.46
2023-05-13T08:37:49.254Z,15.77
2023-05-13T08:40:16.781Z,15.53
2023-05-13T08:42:49.976Z,15.70
2023-05-13T08:45:22.151Z,15.21
2023-05-13T08:47:52.555Z,15.59
2023-05-13T08:50:22.189Z,16.00
2023-05-13T08:52:52.981Z,15.74
2023-05-13T08:55:21.073Z,15.61
2023-05-13T08:57:49.051Z,15.44
2023-05-13T09:00:18.030Z,15.49
2023-05-13T09:02:47.482Z,15.66
2023-05-13T09:05:16.376Z,15.76
2023-05-13T09:07:45.308Z,15.73
2023-05-13T09:10:12.725Z,16.05
2023-05-13T09:12:44.198Z,15.98
2023-05-13T09:15:13.080Z,16.13
2023-05-13T09:17:42.504Z,16.20
2023-05-13T09:20:12.010Z,16.09
2023-05-13T09:22:42.778Z,16.41
2023-05-13T09:25:16.866Z,16.27
2023-05-13T09:27:45.655Z,16.47
2023-05-13T09:30:13.596Z,16.46
2023-05-13T09:32:42.585Z,16.70
2023-05-13T09:35:12.056Z,16.40
2023-05-13T09:37:39.733Z,16.39
2023-05-13T09:40:12.495Z,16.40
2023-05-13T09:42:43.838Z,16.44
2023-05-13T09:45:12.469Z,16.67
2023-05-13T09:47:41.217Z,16.59
2023-05-13T09:50:10.671Z,16.86
2023-05-13T09:52:39.268Z,16.50
2023-05-13T09:55:10.641Z,16.58
2023-05-13T09:57:40.711Z,16.40
2023-05-13T10:00:17.972Z,16.35
2023-05-13T10:02:53.320Z,16.20
2023-05-13T10:05:21.559Z,16.75
2023-05-13T10:07:49.476Z,16.65
2023-05-13T10:10:17.256Z,16.82
2023-05-13T10:12:45.266Z,17.06
2023-05-13T10:15:14.866Z,17.07
2023-05-13T10:17:44.701Z,16.71
2023-05-13T10:20:13.572Z,17.05
2023-05-13T10:22:41.515Z,16.72
2023-05-13T10:25:10.162Z,16.51
2023-05-13T10:27:39.297Z,16.89
2023-05-13T10:30:10.241Z,16.66
2023-05-13T10:32:40.972Z,16.65
2023-05-13T10:35:12.943Z,16.58
2023-05-13T10:37:57.447Z,16.38
2023-05-13T10:40:33.932Z,16.83
2023-05-13T10:43:12.181Z,16.92
2023-05-13T10:45:39.780Z,17.14
2023-05-13T10:48:12.025Z,17.45
2023-05-13T10:50:40.067Z,17.65
2023-05-13T10:53:20.048Z,17.79
2023-05-13T10:55:47.624Z,17.85
2023-05-13T10:58:16.744Z,17.78
2023-05-13T11:00:45.923Z,17.36
2023-05-13T11:03:17.267Z,17.83
2023-05-13T11:05:47.092Z,17.70
2023-05-13T11:08:39.716Z,17.52
2023-05-13T11:11:25.111Z,17.40
2023-05-13T11:13:53.293Z,17.11
2023-05-13T11:16:22.698Z,17.34
2023-05-13T11:18:52.932Z,17.45
2023-05-13T11:21:31.585Z,17.48
2023-05-13T11:24:02.059Z,17.65
2023-05-13T11:26:47.240Z,17.62
2023-05-13T11:29:14.883Z,17.02
2023-05-13T11:31:52.924Z,17.30
2023-05-13T11:34:21.848Z,16.96
2023-05-13T11:36:50.894Z,16.91
2023-05-13T11:39:19.980Z,17.08
2023-05-13T11:41:48.440Z,17.08
2023-05-13T11:44:17.588Z,16.93
2023-05-13T11:46:53.518Z,16.98
2023-05-13T11:49:36.253Z,16.83
2023-05-13T11:52:04.868Z,16.54
2023-05-13T11:54:32.451Z,16.59
2023-05-13T11:56:59.984Z,16.67
2023-05-13T11:59:31.355Z,16.57
2023-05-13T12:02:06.241Z,16.39
2023-05-13T12:04:35.024Z,16.28
2023-05-13T12:07:02.637Z,16.13
2023-05-13T12:09:30.030Z,15.17
2023-05-13T12:11:57.974Z,12.41
2023-05-13T12:14:27.838Z,11.14
2023-05-13T12:16:56.045Z,10.47
2023-05-13T12:19:23.552Z,9.80
2023-05-13T12:21:52.376Z,9.60
2023-05-13T12:24:20.984Z,9.55
2023-05-13T12:26:48.936Z,9.49
2023-05-13T12:29:16.430Z,9.56
2023-05-13T12:32:05.078Z,9.60
2023-05-13T12:34:33.135Z,9.69
2023-05-13T12:37:12.523Z,9.80
2023-05-13T12:39:41.353Z,9.86
2023-05-13T12:42:15.163Z,9.82
2023-05-13T12:44:43.492Z,9.87
2023-05-13T12:47:11.730Z,9.85
2023-05-13T12:49:52.864Z,9.89
2023-05-13T12:52:22.537Z,9.93
2023-05-13T12:54:49.969Z,9.95
2023-05-13T12:57:18.179Z,9.95
2023-05-13T12:59:46.603Z,10.04
2023-05-13T13:02:14.095Z,10.13
2023-05-13T13:04:41.680Z,10.19
2023-05-13T13:07:12.528Z,10.18
2023-05-13T13:09:41.303Z,10.21
2023-05-13T13:12:08.965Z,10.16
2023-05-13T13:14:36.415Z,10.18
2023-05-13T13:17:03.831Z,10.20
2023-05-13T13:19:31.522Z,10.23
2023-05-13T13:21:59.111Z,10.33
2023-05-13T13:24:26.522Z,10.58
2023-05-13T13:26:56.553Z,10.48
2023-05-13T13:29:24.236Z,10.50
2023-05-13T13:31:51.944Z,10.42
2023-05-13T13:34:19.463Z,10.37
2023-05-13T13:36:47.194Z,10.55
2023-05-13T13:39:14.673Z,10.52
2023-05-13T13:41:42.271Z,10.50
2023-05-13T13:44:11.290Z,10.54
2023-05-13T13:46:38.696Z,10.67
2023-05-13T13:49:22.726Z,10.67
2023-05-13T13:51:50.975Z,10.73
2023-05-13T13:54:18.573Z,10.88
2023-05-13T13:56:46.111Z,11.03
2023-05-13T13:59:14.905Z,11.24
2023-05-13T14:01:43.847Z,11.40
2023-05-13T14:04:12.623Z,11.61
2023-05-13T14:06:40.673Z,11.84
2023-05-13T14:09:08.456Z,12.23
2023-05-13T14:11:35.895Z,12.68
2023-05-13T14:14:03.419Z,13.04
2023-05-13T14:16:32.426Z,13.34
2023-05-13T14:18:59.957Z,13.48
2023-05-13T14:21:27.435Z,13.99
2023-05-13T14:23:54.887Z,14.63
2023-05-13T14:26:22.493Z,15.18
2023-05-13T14:28:49.921Z,15.03
2023-05-13T14:31:17.401Z,14.81
2023-05-13T14:33:46.297Z,14.50
2023-05-13T14:36:16.102Z,14.47
2023-05-13T14:38:44.608Z,14.53
2023-05-13T14:41:12.517Z,15.18
2023-05-13T14:43:39.975Z,15.80
2023-05-13T14:46:07.400Z,16.41
2023-05-13T14:48:34.844Z,16.89
2023-05-13T14:51:03.764Z,17.11
2023-05-13T14:53:31.253Z,17.66
2023-05-13T14:55:58.780Z,18.07
2023-05-13T14:58:26.370Z,18.39
2023-05-13T15:00:54.232Z,18.59
2023-05-13T15:03:21.723Z,19.15
2023-05-13T15:05:50.066Z,18.57
2023-05-13T15:08:19.329Z,18.13
2023-05-13T15:10:46.975Z,16.82
2023-05-13T15:13:14.411Z,16.51
2023-05-13T15:15:41.862Z,16.80
2023-05-13T15:18:09.336Z,16.30
2023-05-13T15:20:36.755Z,16.22
2023-05-13T15:23:04.217Z,16.21
2023-05-13T15:25:33.112Z,15.62
2023-05-13T15:28:00.585Z,15.21
2023-05-13T15:30:28.016Z,15.07
2023-05-13T15:32:55.615Z,15.13
2023-05-13T15:35:23.083Z,15.35
2023-05-13T15:37:50.517Z,15.48
2023-05-13T15:40:17.974Z,14.66
2023-05-13T15:42:48.092Z,14.49
2023-05-13T15:45:15.741Z,14.56
2023-05-13T15:47:43.394Z,14.54
2023-05-13T15:50:11.844Z,14.55
2023-05-13T15:52:39.855Z,14.46
2023-05-13T15:55:08.074Z,14.72
2023-05-13T15:57:35.498Z,14.75
2023-05-13T16:00:05.959Z,14.69
2023-05-13T16:02:37.530Z,14.53
2023-05-13T16:05:05.436Z,14.55
2023-05-13T16:07:32.920Z,14.68
2023-05-13T16:10:00.509Z,14.79
2023-05-13T16:12:27.991Z,14.73
2023-05-13T16:14:55.459Z,14.54
2023-05-13T16:17:24.329Z,14.43
2023-05-13T16:19:52.005Z,14.30
2023-05-13T16:22:26.580Z,14.26
2023-05-13T16:24:54.070Z,14.07
2023-05-13T16:27:21.661Z,14.35
2023-05-13T16:29:49.081Z,14.72
2023-05-13T16:32:16.573Z,15.28
2023-05-13T16:34:45.401Z,15.24
2023-05-13T16:37:12.830Z,15.54
2023-05-13T16:39:41.095Z,15.88
2023-05-13T16:42:08.778Z,15.75
2023-05-13T16:44:36.409Z,16.08
2023-05-13T16:47:04.128Z,16.24
2023-05-13T16:49:31.692Z,15.74
2023-05-13T16:52:00.651Z,15.90
2023-05-13T16:54:28.132Z,15.45
2023-05-13T16:56:55.594Z,15.57
2023-05-13T16:59:24.037Z,15.89
2023-05-13T17:01:52.270Z,15.87
2023-05-13T17:04:21.014Z,15.95
2023-05-13T17:06:48.592Z,16.12
2023-05-13T17:09:17.569Z,16.15
2023-05-13T17:11:45.130Z,16.23
2023-05-13T17:14:12.602Z,16.31
2023-05-13T17:16:41.824Z,17.03
2023-05-13T17:19:09.638Z,17.08
2023-05-13T17:21:37.246Z,16.64
2023-05-13T17:24:05.581Z,16.04
2023-05-13T17:26:36.823Z,15.37
2023-05-13T17:29:06.142Z,15.37
2023-05-13T17:31:33.990Z,15.18
2023-05-13T17:34:01.654Z,14.95
2023-05-13T17:36:29.257Z,14.65
2023-05-13T17:38:56.801Z,14.54
2023-05-13T17:41:24.330Z,14.46
2023-05-13T17:43:53.337Z,14.84
2023-05-13T17:46:20.950Z,14.96
2023-05-13T17:48:48.623Z,15.08
2023-05-13T17:51:16.354Z,14.70
2023-05-13T17:53:43.936Z,14.38
2023-05-13T17:56:11.532Z,14.38
2023-05-13T17:58:39.197Z,14.25
2023-05-13T18:01:08.227Z,14.09
2023-05-13T18:03:36.102Z,13.76
2023-05-13T18:06:03.858Z,13.63
2023-05-13T18:08:31.986Z,13.51
2023-05-13T18:10:59.538Z,13.44
2023-05-13T18:13:27.144Z,13.57
2023-05-13T18:15:54.835Z,13.49
2023-05-13T18:18:23.877Z,13.43
2023-05-13T18:20:51.560Z,13.48
2023-05-13T18:23:19.220Z,13.51
2023-05-13T18:25:55.611Z,13.43
2023-05-13T18:28:23.877Z,13.28
2023-05-13T18:30:51.607Z,13.36
2023-05-13T18:33:21.390Z,13.23
2023-05-13T18:35:51.309Z,13.02
2023-05-13T18:38:18.930Z,12.92
2023-05-13T18:40:46.522Z,12.89
2023-05-13T18:43:14.374Z,12.94
2023-05-13T18:45:42.871Z,13.11
2023-05-13T18:48:10.502Z,12.91
2023-05-13T18:50:38.151Z,12.72
2023-05-13T18:53:07.159Z,12.62
2023-05-13T18:55:34.802Z,12.63
2023-05-13T18:58:02.283Z,12.76
2023-05-13T19:00:29.928Z,12.56
2023-05-13T19:02:57.906Z,12.41
2023-05-13T19:05:25.636Z,12.33
2023-05-13T19:07:53.331Z,12.22
2023-05-13T19:10:22.723Z,12.04
2023-05-13T19:12:51.050Z,11.98
2023-05-13T19:15:21.090Z,11.93
2023-05-13T19:17:48.993Z,11.85
2023-05-13T19:20:17.493Z,11.81
2023-05-13T19:22:45.112Z,11.60
2023-05-13T19:25:12.826Z,11.65
2023-05-13T19:27:41.837Z,11.53
2023-05-13T19:30:10.454Z,11.49
2023-05-13T19:32:38.151Z,11.38
2023-05-13T19:35:09.486Z,11.37
2023-05-13T19:37:38.687Z,11.29
2023-05-13T19:40:07.552Z,11.27
2023-05-13T19:42:35.115Z,11.12
2023-05-13T19:45:06.064Z,11.00
2023-05-13T19:47:34.446Z,10.73
2023-05-13T19:50:02.076Z,10.63
2023-05-13T19:52:29.800Z,10.63
2023-05-13T19:54:57.597Z,10.42
2023-05-13T19:57:27.505Z,10.26
2023-05-13T19:59:56.997Z,10.24
2023-05-13T20:02:25.962Z,10.22
2023-05-13T20:04:53.631Z,10.28
2023-05-13T20:07:21.342Z,10.08
2023-05-13T20:09:48.819Z,9.87
2023-05-13T20:12:16.357Z,9.72
2023-05-13T20:14:45.374Z,9.85
2023-05-13T20:17:16.619Z,9.69
2023-05-13T20:19:47.218Z,9.54
2023-05-13T20:22:15.328Z,9.41
2023-05-13T20:24:42.876Z,9.27
2023-05-13T20:27:11.264Z,9.26
2023-05-13T20:29:40.969Z,9.22
2023-05-13T20:32:09.051Z,9.08
2023-05-13T20:34:37.302Z,8.80
2023-05-13T20:37:06.792Z,8.90
2023-05-13T20:39:34.280Z,8.64
2023-05-13T20:42:01.880Z,8.70
2023-05-13T20:44:29.500Z,8.69
2023-05-13T20:46:57.296Z,8.65
2023-05-13T20:49:24.731Z,8.48
2023-05-13T20:51:52.476Z,8.43
2023-05-13T20:54:21.371Z,8.26
2023-05-13T20:56:48.931Z,8.15
2023-05-13T20:59:16.434Z,8.03
2023-05-13T21:01:47.401Z,8.19
2023-05-13T21:04:15.288Z,8.12
2023-05-13T21:06:42.988Z,7.92
2023-05-13T21:09:10.620Z,8.28
2023-05-13T21:11:39.865Z,8.08
2023-05-13T21:14:07.570Z,8.30
2023-05-13T21:16:36.006Z,8.06
2023-05-13T21:19:03.699Z,8.28
2023-05-13T21:21:32.055Z,8.34
2023-05-13T21:24:02.925Z,8.24
2023-05-13T21:26:30.699Z,8.22
2023-05-13T21:28:59.663Z,8.10
2023-05-13T21:31:27.189Z,7.81
2023-05-13T21:33:57.684Z,7.78
2023-05-13T21:36:25.611Z,7.61
2023-05-13T21:38:54.230Z,7.45
2023-05-13T21:41:22.646Z,7.62
2023-05-13T21:43:50.412Z,7.77
2023-05-13T21:46:19.339Z,7.75
2023-05-13T21:48:47.413Z,7.62
2023-05-13T21:51:15.108Z,7.53
2023-05-13T21:53:43.929Z,7.50
2023-05-13T21:56:11.494Z,7.55
2023-05-13T21:58:39.219Z,7.37
2023-05-13T22:01:06.970Z,7.42
2023-05-13T22:03:36.073Z,7.14
2023-05-13T22:06:04.063Z,7.27
2023-05-13T22:08:32.115Z,7.22
2023-05-13T22:11:01.172Z,7.20
2023-05-13T22:13:28.839Z,7.25
2023-05-13T22:15:56.436Z,7.01
2023-05-13T22:18:24.161Z,6.98
2023-05-13T22:20:53.284Z,6.72
2023-05-13T22:23:20.829Z,6.89
2023-05-13T22:25:48.472Z,6.96
2023-05-13T22:28:16.210Z,7.05
2023-05-13T22:30:44.601Z,6.90
2023-05-13T22:33:12.211Z,6.83
2023-05-13T22:35:39.827Z,6.86
2023-05-13T22:38:08.706Z,6.69
2023-05-13T22:40:36.749Z,6.58
2023-05-13T22:43:04.327Z,6.70
2023-05-13T22:45:31.865Z,6.63
2023-05-13T22:47:59.530Z,6.48
2023-05-13T22:50:27.263Z,6.40
2023-05-13T22:52:54.881Z,6.25
2023-05-13T22:55:25.115Z,6.40
2023-05-13T22:57:52.670Z,6.53
2023-05-13T23:00:20.388Z,6.53
2023-05-13T23:02:47.912Z,6.37
2023-05-13T23:05:15.480Z,6.36
2023-05-13T23:07:43.012Z,6.18
2023-05-13T23:10:11.315Z,6.20
2023-05-13T23:12:40.358Z,6.08
2023-05-13T23:15:10.930Z,5.95
2023-05-13T23:17:38.652Z,6.09
2023-05-13T23:20:07.770Z,6.12
2023-05-13T23:22:35.250Z,6.08
2023-05-13T23:25:03.558Z,5.90
2023-05-13T23:27:31.735Z,6.05
2023-05-13T23:30:00.768Z,6.03
2023-05-13T23:32:28.486Z,6.06
2023-05-13T23:34:56.152Z,5.96
2023-05-13T23:37:23.832Z,5.89
2023-05-13T23:39:51.434Z,5.79
2023-05-13T23:42:19.258Z,5.82
2023-05-13T23:44:46.849Z,5.71
2023-05-13T23:47:16.668Z,5.69
2023-05-13T23:49:44.250Z,5.62
2023-05-13T23:52:11.790Z,5.66
2023-05-13T23:54:39.522Z,5.62
2023-05-13T23:57:07.145Z,5.43
2023-05-13T23:59:34.877Z,5.42
